sensor_id;sensor_type;location;lat;lon;timestamp;P1;durP1;ratioP1;P2;durP2;ratioP2
15104;SDS011;7653;48.994;9.212;2022-11-15T00:00:49;5.20;;;3.63;;
15104;SDS011;7653;48.994;9.212;2022-11-15T00:10:00;6.33;;;3.77;;
15104;SDS011;7653;48.994;9.212;2022-11-15T11:10:54;4.47;;;2.60;;
15104;SDS011;7653;48.994;9.212;2022-11-15T11:15:51;3.10;;;2.40;;
15104;SDS011;7653;48.994;9.212;2022-11-15T11:18:42;4.77;;;2.77;;
15104;SDS011;7653;48.994;9.212;2022-11-15T11:35:29;7.63;;;5.10;;
15104;SDS011;7653;48.994;9.212;2022-11-15T11:52:17;6.47;;;3.63;;
15104;SDS011;7653;48.994;9.212;2022-11-15T11:54:58;7.60;;;4.33;;
15104;SDS011;7653;48.994;9.212;2022-11-15T12:00:25;6.23;;;3.57;;
15104;SDS011;7653;48.994;9.212;2022-11-15T12:03:04;6.27;;;3.47;;
15104;SDS011;7653;48.994;9.212;2022-11-15T12:05:32;5.20;;;3.63;;
15104;SDS011;7653;48.994;9.212;2022-11-15T12:11:16;3.83;;;3.43;;
15104;SDS011;7653;48.994;9.212;2022-11-15T12:13:49;6.80;;;4.00;;
15104;SDS011;7653;48.994;9.212;2022-11-15T12:16:22;5.80;;;3.60;;
15104;SDS011;7653;48.994;9.212;2022-11-15T12:18:53;6.50;;;4.23;;
15104;SDS011;7653;48.994;9.212;2022-11-15T12:24:06;8.10;;;4.20;;
15104;SDS011;7653;48.994;9.212;2022-11-15T12:29:29;7.00;;;4.60;;
15104;SDS011;7653;48.994;9.212;2022-11-15T12:32:02;7.43;;;5.13;;
15104;SDS011;7653;48.994;9.212;2022-11-15T12:34:34;9.07;;;5.77;;
15104;SDS011;7653;48.994;9.212;2022-11-15T12:45:37;8.77;;;3.90;;
15104;SDS011;7653;48.994;9.212;2022-11-15T13:06:52;6.40;;;3.70;;
15104;SDS011;7653;48.994;9.212;2022-11-15T13:11:59;5.90;;;3.10;;
15104;SDS011;7653;48.994;9.212;2022-11-15T13:14:49;6.70;;;3.67;;
15104;SDS011;7653;48.994;9.212;2022-11-15T13:19:47;6.87;;;4.30;;
15104;SDS011;7653;48.994;9.212;2022-11-15T13:22:24;8.90;;;4.73;;
15104;SDS011;7653;48.994;9.212;2022-11-15T13:27:44;6.03;;;3.90;;
15104;SDS011;7653;48.994;9.212;2022-11-15T13:30:24;6.03;;;3.93;;
15104;SDS011;7653;48.994;9.212;2022-11-15T13:32:51;5.40;;;3.30;;
15104;SDS011;7653;48.994;9.212;2022-11-15T13:35:22;7.23;;;3.40;;
15104;SDS011;7653;48.994;9.212;2022-11-15T13:37:50;5.17;;;3.40;;
15104;SDS011;7653;48.994;9.212;2022-11-15T13:48:35;9.07;;;3.10;;
15104;SDS011;7653;48.994;9.212;2022-11-15T13:51:03;4.90;;;3.30;;
15104;SDS011;7653;48.994;9.212;2022-11-15T13:53:33;6.03;;;3.43;;
15104;SDS011;7653;48.994;9.212;2022-11-15T13:56:01;4.63;;;3.30;;
15104;SDS011;7653;48.994;9.212;2022-11-15T13:58:29;4.47;;;3.07;;
15104;SDS011;7653;48.994;9.212;2022-11-15T14:01:02;5.93;;;2.83;;
15104;SDS011;7653;48.994;9.212;2022-11-15T14:03:30;4.73;;;3.10;;
15104;SDS011;7653;48.994;9.212;2022-11-15T14:08:32;2.90;;;2.60;;
15104;SDS011;7653;48.994;9.212;2022-11-15T14:16:48;4.67;;;2.77;;
15104;SDS011;7653;48.994;9.212;2022-11-15T14:24:45;4.07;;;2.57;;
15104;SDS011;7653;48.994;9.212;2022-11-15T14:27:28;6.83;;;2.67;;
15104;SDS011;7653;48.994;9.212;2022-11-15T14:29:54;4.77;;;2.93;;
15104;SDS011;7653;48.994;9.212;2022-11-15T14:32:24;2.63;;;2.40;;
15104;SDS011;7653;48.994;9.212;2022-11-15T14:34:55;3.67;;;2.73;;
15104;SDS011;7653;48.994;9.212;2022-11-15T14:39:50;3.53;;;2.90;;
15104;SDS011;7653;48.994;9.212;2022-11-15T14:42:17;4.93;;;3.40;;
15104;SDS011;7653;48.994;9.212;2022-11-15T14:44:43;10.57;;;7.73;;
15104;SDS011;7653;48.994;9.212;2022-11-15T14:47:11;12.00;;;8.47;;
15104;SDS011;7653;48.994;9.212;2022-11-15T14:49:39;9.47;;;7.23;;
15104;SDS011;7653;48.994;9.212;2022-11-15T14:52:09;16.23;;;12.70;;
15104;SDS011;7653;48.994;9.212;2022-11-15T14:54:51;15.30;;;9.80;;
15104;SDS011;7653;48.994;9.212;2022-11-15T14:57:20;5.90;;;4.63;;
15104;SDS011;7653;48.994;9.212;2022-11-15T15:00:20;3.23;;;2.80;;
15104;SDS011;7653;48.994;9.212;2022-11-15T15:02:59;6.77;;;3.10;;
15104;SDS011;7653;48.994;9.212;2022-11-15T15:08:11;12.57;;;7.63;;
15104;SDS011;7653;48.994;9.212;2022-11-15T15:10:41;13.70;;;10.33;;
15104;SDS011;7653;48.994;9.212;2022-11-15T15:13:19;14.07;;;10.07;;
15104;SDS011;7653;48.994;9.212;2022-11-15T15:15:47;12.33;;;9.20;;
15104;SDS011;7653;48.994;9.212;2022-11-15T15:18:13;15.27;;;11.23;;
15104;SDS011;7653;48.994;9.212;2022-11-15T15:20:40;5.77;;;5.17;;
15104;SDS011;7653;48.994;9.212;2022-11-15T15:23:18;5.50;;;4.77;;
15104;SDS011;7653;48.994;9.212;2022-11-15T15:26:01;7.27;;;3.50;;
15104;SDS011;7653;48.994;9.212;2022-11-15T15:28:26;6.77;;;4.17;;
15104;SDS011;7653;48.994;9.212;2022-11-15T15:30:52;7.23;;;4.97;;
15104;SDS011;7653;48.994;9.212;2022-11-15T15:33:23;6.23;;;4.73;;
15104;SDS011;7653;48.994;9.212;2022-11-15T15:36:13;9.43;;;5.73;;
15104;SDS011;7653;48.994;9.212;2022-11-15T15:38:43;11.57;;;6.47;;
15104;SDS011;7653;48.994;9.212;2022-11-15T15:41:13;7.63;;;4.50;;
15104;SDS011;7653;48.994;9.212;2022-11-15T15:43:39;6.80;;;4.10;;
15104;SDS011;7653;48.994;9.212;2022-11-15T15:46:12;11.87;;;9.00;;
15104;SDS011;7653;48.994;9.212;2022-11-15T15:48:40;5.77;;;4.33;;
15104;SDS011;7653;48.994;9.212;2022-11-15T15:51:18;5.47;;;3.47;;
15104;SDS011;7653;48.994;9.212;2022-11-15T15:53:44;5.30;;;4.60;;
15104;SDS011;7653;48.994;9.212;2022-11-15T15:56:10;9.83;;;9.03;;
15104;SDS011;7653;48.994;9.212;2022-11-15T15:58:36;6.93;;;5.83;;
15104;SDS011;7653;48.994;9.212;2022-11-15T16:01:01;3.50;;;3.20;;
15104;SDS011;7653;48.994;9.212;2022-11-15T16:03:32;2.87;;;2.27;;
15104;SDS011;7653;48.994;9.212;2022-11-15T16:05:58;3.00;;;2.33;;
15104;SDS011;7653;48.994;9.212;2022-11-15T16:08:24;3.57;;;2.00;;
15104;SDS011;7653;48.994;9.212;2022-11-15T16:10:54;5.57;;;4.50;;
15104;SDS011;7653;48.994;9.212;2022-11-15T16:13:20;4.63;;;4.23;;
15104;SDS011;7653;48.994;9.212;2022-11-15T16:15:50;3.90;;;3.20;;
15104;SDS011;7653;48.994;9.212;2022-11-15T16:18:18;4.50;;;3.50;;
15104;SDS011;7653;48.994;9.212;2022-11-15T16:20:48;4.23;;;3.23;;
15104;SDS011;7653;48.994;9.212;2022-11-15T16:23:15;5.60;;;3.80;;
15104;SDS011;7653;48.994;9.212;2022-11-15T16:25:55;4.70;;;4.07;;
15104;SDS011;7653;48.994;9.212;2022-11-15T16:28:22;6.57;;;5.87;;
15104;SDS011;7653;48.994;9.212;2022-11-15T16:30:49;9.60;;;6.37;;
15104;SDS011;7653;48.994;9.212;2022-11-15T16:33:25;6.00;;;4.10;;
15104;SDS011;7653;48.994;9.212;2022-11-15T16:35:51;5.90;;;3.03;;
15104;SDS011;7653;48.994;9.212;2022-11-15T16:38:16;4.43;;;3.20;;
15104;SDS011;7653;48.994;9.212;2022-11-15T16:40:42;4.23;;;3.50;;
15104;SDS011;7653;48.994;9.212;2022-11-15T16:43:08;5.47;;;4.33;;
15104;SDS011;7653;48.994;9.212;2022-11-15T16:45:34;5.93;;;3.87;;
15104;SDS011;7653;48.994;9.212;2022-11-15T16:48:00;4.70;;;3.50;;
15104;SDS011;7653;48.994;9.212;2022-11-15T16:50:27;4.87;;;3.70;;
15104;SDS011;7653;48.994;9.212;2022-11-15T16:52:55;5.57;;;4.27;;
15104;SDS011;7653;48.994;9.212;2022-11-15T16:55:23;5.67;;;3.87;;
15104;SDS011;7653;48.994;9.212;2022-11-15T16:57:53;4.13;;;3.63;;
15104;SDS011;7653;48.994;9.212;2022-11-15T17:00:22;5.33;;;4.10;;
15104;SDS011;7653;48.994;9.212;2022-11-15T17:02:49;5.27;;;3.60;;
15104;SDS011;7653;48.994;9.212;2022-11-15T17:05:16;4.80;;;3.80;;
15104;SDS011;7653;48.994;9.212;2022-11-15T17:07:45;4.90;;;3.80;;
15104;SDS011;7653;48.994;9.212;2022-11-15T17:10:18;3.93;;;3.17;;
15104;SDS011;7653;48.994;9.212;2022-11-15T17:12:48;5.03;;;3.30;;
15104;SDS011;7653;48.994;9.212;2022-11-15T17:15:14;4.33;;;3.37;;
15104;SDS011;7653;48.994;9.212;2022-11-15T17:17:43;3.83;;;3.37;;
15104;SDS011;7653;48.994;9.212;2022-11-15T17:20:15;6.03;;;3.20;;
15104;SDS011;7653;48.994;9.212;2022-11-15T17:22:42;4.23;;;3.70;;
15104;SDS011;7653;48.994;9.212;2022-11-15T17:25:09;6.03;;;3.87;;
15104;SDS011;7653;48.994;9.212;2022-11-15T17:27:35;5.43;;;4.00;;
15104;SDS011;7653;48.994;9.212;2022-11-15T17:30:01;6.87;;;4.20;;
15104;SDS011;7653;48.994;9.212;2022-11-15T17:32:26;6.03;;;4.03;;
15104;SDS011;7653;48.994;9.212;2022-11-15T17:34:52;7.53;;;4.20;;
15104;SDS011;7653;48.994;9.212;2022-11-15T17:37:18;4.83;;;3.97;;
15104;SDS011;7653;48.994;9.212;2022-11-15T17:39:43;5.87;;;4.07;;
15104;SDS011;7653;48.994;9.212;2022-11-15T17:42:09;5.93;;;3.80;;
15104;SDS011;7653;48.994;9.212;2022-11-15T17:44:35;7.63;;;4.40;;
15104;SDS011;7653;48.994;9.212;2022-11-15T17:47:01;8.00;;;3.80;;
15104;SDS011;7653;48.994;9.212;2022-11-15T17:49:26;5.67;;;3.60;;
15104;SDS011;7653;48.994;9.212;2022-11-15T17:51:52;5.00;;;3.97;;
15104;SDS011;7653;48.994;9.212;2022-11-15T17:54:18;7.50;;;4.23;;
15104;SDS011;7653;48.994;9.212;2022-11-15T17:56:44;5.37;;;3.80;;
15104;SDS011;7653;48.994;9.212;2022-11-15T17:59:09;6.67;;;4.03;;
15104;SDS011;7653;48.994;9.212;2022-11-15T18:01:36;4.63;;;3.83;;
15104;SDS011;7653;48.994;9.212;2022-11-15T18:04:03;4.47;;;3.80;;
15104;SDS011;7653;48.994;9.212;2022-11-15T18:06:32;4.43;;;3.77;;
15104;SDS011;7653;48.994;9.212;2022-11-15T18:08:59;4.83;;;3.80;;
15104;SDS011;7653;48.994;9.212;2022-11-15T18:11:27;5.23;;;4.30;;
15104;SDS011;7653;48.994;9.212;2022-11-15T18:13:55;8.13;;;5.30;;
15104;SDS011;7653;48.994;9.212;2022-11-15T18:16:23;7.67;;;5.30;;
15104;SDS011;7653;48.994;9.212;2022-11-15T18:18:50;14.87;;;9.80;;
15104;SDS011;7653;48.994;9.212;2022-11-15T18:21:20;40.80;;;24.83;;
15104;SDS011;7653;48.994;9.212;2022-11-15T18:23:48;40.70;;;24.17;;
15104;SDS011;7653;48.994;9.212;2022-11-15T18:26:17;35.23;;;20.63;;
15104;SDS011;7653;48.994;9.212;2022-11-15T18:28:44;21.83;;;12.63;;
15104;SDS011;7653;48.994;9.212;2022-11-15T18:31:13;23.37;;;13.73;;
15104;SDS011;7653;48.994;9.212;2022-11-15T18:33:39;15.37;;;9.30;;
15104;SDS011;7653;48.994;9.212;2022-11-15T18:36:06;11.07;;;7.60;;
15104;SDS011;7653;48.994;9.212;2022-11-15T18:38:33;12.10;;;7.13;;
15104;SDS011;7653;48.994;9.212;2022-11-15T18:41:12;10.27;;;6.87;;
15104;SDS011;7653;48.994;9.212;2022-11-15T18:43:44;15.37;;;9.50;;
15104;SDS011;7653;48.994;9.212;2022-11-15T18:46:11;21.80;;;11.67;;
15104;SDS011;7653;48.994;9.212;2022-11-15T18:48:40;16.63;;;8.30;;
15104;SDS011;7653;48.994;9.212;2022-11-15T18:51:15;21.93;;;12.57;;
15104;SDS011;7653;48.994;9.212;2022-11-15T18:53:42;23.00;;;11.97;;
15104;SDS011;7653;48.994;9.212;2022-11-15T18:56:16;18.33;;;9.73;;
15104;SDS011;7653;48.994;9.212;2022-11-15T18:58:44;14.77;;;8.97;;
15104;SDS011;7653;48.994;9.212;2022-11-15T19:01:12;8.60;;;6.33;;
15104;SDS011;7653;48.994;9.212;2022-11-15T19:03:47;14.13;;;9.03;;
15104;SDS011;7653;48.994;9.212;2022-11-15T19:06:15;17.60;;;10.83;;
15104;SDS011;7653;48.994;9.212;2022-11-15T19:08:42;11.80;;;7.90;;
15104;SDS011;7653;48.994;9.212;2022-11-15T19:13:56;12.43;;;7.10;;
15104;SDS011;7653;48.994;9.212;2022-11-15T19:16:23;13.17;;;8.80;;
15104;SDS011;7653;48.994;9.212;2022-11-15T19:18:54;19.70;;;11.20;;
15104;SDS011;7653;48.994;9.212;2022-11-15T19:21:20;15.30;;;10.43;;
15104;SDS011;7653;48.994;9.212;2022-11-15T19:23:47;13.00;;;9.67;;
15104;SDS011;7653;48.994;9.212;2022-11-15T19:26:13;11.17;;;8.00;;
15104;SDS011;7653;48.994;9.212;2022-11-15T19:28:40;8.93;;;6.70;;
15104;SDS011;7653;48.994;9.212;2022-11-15T19:33:33;16.87;;;13.00;;
15104;SDS011;7653;48.994;9.212;2022-11-15T19:36:02;13.60;;;10.40;;
15104;SDS011;7653;48.994;9.212;2022-11-15T19:38:33;17.30;;;12.10;;
15104;SDS011;7653;48.994;9.212;2022-11-15T19:41:00;9.40;;;6.40;;
15104;SDS011;7653;48.994;9.212;2022-11-15T19:43:28;16.40;;;11.63;;
15104;SDS011;7653;48.994;9.212;2022-11-15T19:46:00;24.67;;;18.77;;
15104;SDS011;7653;48.994;9.212;2022-11-15T19:48:28;33.50;;;24.50;;
15104;SDS011;7653;48.994;9.212;2022-11-15T19:50:58;13.03;;;9.87;;
15104;SDS011;7653;48.994;9.212;2022-11-15T19:53:26;8.70;;;6.57;;
15104;SDS011;7653;48.994;9.212;2022-11-15T19:55:52;7.17;;;6.40;;
15104;SDS011;7653;48.994;9.212;2022-11-15T19:58:19;8.90;;;6.03;;
15104;SDS011;7653;48.994;9.212;2022-11-15T20:00:44;8.60;;;7.43;;
15104;SDS011;7653;48.994;9.212;2022-11-15T20:03:10;10.60;;;7.40;;
15104;SDS011;7653;48.994;9.212;2022-11-15T20:05:36;9.77;;;6.80;;
15104;SDS011;7653;48.994;9.212;2022-11-15T20:08:02;8.30;;;6.40;;
15104;SDS011;7653;48.994;9.212;2022-11-15T20:10:28;11.57;;;7.13;;
15104;SDS011;7653;48.994;9.212;2022-11-15T20:12:54;11.63;;;6.80;;
15104;SDS011;7653;48.994;9.212;2022-11-15T20:15:19;11.20;;;7.40;;
15104;SDS011;7653;48.994;9.212;2022-11-15T20:17:45;12.33;;;8.23;;
15104;SDS011;7653;48.994;9.212;2022-11-15T20:20:11;11.53;;;8.23;;
15104;SDS011;7653;48.994;9.212;2022-11-15T20:22:37;9.47;;;6.93;;
15104;SDS011;7653;48.994;9.212;2022-11-15T20:25:02;10.13;;;7.20;;
15104;SDS011;7653;48.994;9.212;2022-11-15T20:27:28;11.40;;;7.40;;
15104;SDS011;7653;48.994;9.212;2022-11-15T20:29:54;13.10;;;7.57;;
15104;SDS011;7653;48.994;9.212;2022-11-15T20:32:20;11.57;;;7.47;;
15104;SDS011;7653;48.994;9.212;2022-11-15T20:34:47;10.27;;;6.97;;
15104;SDS011;7653;48.994;9.212;2022-11-15T20:37:16;13.17;;;7.27;;
15104;SDS011;7653;48.994;9.212;2022-11-15T20:39:43;10.60;;;7.03;;
15104;SDS011;7653;48.994;9.212;2022-11-15T20:42:12;10.80;;;7.17;;
15104;SDS011;7653;48.994;9.212;2022-11-15T20:44:38;11.20;;;7.43;;
15104;SDS011;7653;48.994;9.212;2022-11-15T20:47:03;10.13;;;7.17;;
15104;SDS011;7653;48.994;9.212;2022-11-15T20:49:30;10.17;;;7.00;;
15104;SDS011;7653;48.994;9.212;2022-11-15T20:51:56;12.17;;;7.33;;
15104;SDS011;7653;48.994;9.212;2022-11-15T20:54:22;13.83;;;10.70;;
15104;SDS011;7653;48.994;9.212;2022-11-15T20:56:47;15.47;;;11.70;;
15104;SDS011;7653;48.994;9.212;2022-11-15T20:59:13;13.23;;;11.33;;
15104;SDS011;7653;48.994;9.212;2022-11-15T21:01:41;13.73;;;10.93;;
15104;SDS011;7653;48.994;9.212;2022-11-15T21:04:07;14.37;;;11.00;;
15104;SDS011;7653;48.994;9.212;2022-11-15T21:06:32;16.40;;;10.30;;
15104;SDS011;7653;48.994;9.212;2022-11-15T21:08:58;14.03;;;9.37;;
15104;SDS011;7653;48.994;9.212;2022-11-15T21:11:42;13.93;;;9.40;;
15104;SDS011;7653;48.994;9.212;2022-11-15T21:14:26;14.50;;;9.30;;
15104;SDS011;7653;48.994;9.212;2022-11-15T21:16:52;12.10;;;8.10;;
15104;SDS011;7653;48.994;9.212;2022-11-15T21:19:18;14.87;;;8.27;;
15104;SDS011;7653;48.994;9.212;2022-11-15T21:21:45;11.37;;;7.97;;
15104;SDS011;7653;48.994;9.212;2022-11-15T21:24:14;12.40;;;7.87;;
15104;SDS011;7653;48.994;9.212;2022-11-15T21:26:40;11.30;;;7.60;;
15104;SDS011;7653;48.994;9.212;2022-11-15T21:29:06;9.47;;;6.90;;
15104;SDS011;7653;48.994;9.212;2022-11-15T21:31:34;10.73;;;7.17;;
15104;SDS011;7653;48.994;9.212;2022-11-15T21:34:00;12.17;;;7.07;;
15104;SDS011;7653;48.994;9.212;2022-11-15T21:36:27;10.13;;;6.90;;
15104;SDS011;7653;48.994;9.212;2022-11-15T21:38:52;10.50;;;7.33;;
15104;SDS011;7653;48.994;9.212;2022-11-15T21:41:18;12.43;;;7.83;;
15104;SDS011;7653;48.994;9.212;2022-11-15T21:43:46;13.60;;;8.00;;
15104;SDS011;7653;48.994;9.212;2022-11-15T21:46:13;11.03;;;8.07;;
15104;SDS011;7653;48.994;9.212;2022-11-15T21:48:41;11.60;;;7.13;;
15104;SDS011;7653;48.994;9.212;2022-11-15T21:51:08;8.03;;;5.67;;
15104;SDS011;7653;48.994;9.212;2022-11-15T21:53:35;9.00;;;6.43;;
15104;SDS011;7653;48.994;9.212;2022-11-15T21:56:02;11.50;;;7.37;;
15104;SDS011;7653;48.994;9.212;2022-11-15T21:58:28;9.47;;;6.67;;
15104;SDS011;7653;48.994;9.212;2022-11-15T22:00:54;9.00;;;6.17;;
15104;SDS011;7653;48.994;9.212;2022-11-15T22:03:39;11.43;;;7.07;;
15104;SDS011;7653;48.994;9.212;2022-11-15T22:06:05;12.73;;;7.30;;
15104;SDS011;7653;48.994;9.212;2022-11-15T22:08:31;11.27;;;7.33;;
15104;SDS011;7653;48.994;9.212;2022-11-15T22:11:00;11.43;;;7.37;;
15104;SDS011;7653;48.994;9.212;2022-11-15T22:13:26;11.97;;;7.33;;
15104;SDS011;7653;48.994;9.212;2022-11-15T22:15:52;11.60;;;7.40;;
15104;SDS011;7653;48.994;9.212;2022-11-15T22:18:19;12.60;;;8.20;;
15104;SDS011;7653;48.994;9.212;2022-11-15T22:20:54;12.60;;;8.13;;
15104;SDS011;7653;48.994;9.212;2022-11-15T22:23:30;13.23;;;8.13;;
15104;SDS011;7653;48.994;9.212;2022-11-15T22:25:59;11.80;;;8.17;;
15104;SDS011;7653;48.994;9.212;2022-11-15T22:28:25;9.37;;;7.77;;
15104;SDS011;7653;48.994;9.212;2022-11-15T22:30:51;12.50;;;8.30;;
15104;SDS011;7653;48.994;9.212;2022-11-15T22:33:19;10.67;;;8.00;;
15104;SDS011;7653;48.994;9.212;2022-11-15T22:35:47;14.50;;;8.27;;
15104;SDS011;7653;48.994;9.212;2022-11-15T22:38:12;11.37;;;8.50;;
15104;SDS011;7653;48.994;9.212;2022-11-15T22:40:38;15.53;;;8.73;;
15104;SDS011;7653;48.994;9.212;2022-11-15T22:43:04;12.50;;;8.60;;
15104;SDS011;7653;48.994;9.212;2022-11-15T22:45:30;11.03;;;7.87;;
15104;SDS011;7653;48.994;9.212;2022-11-15T22:47:57;10.83;;;8.03;;
15104;SDS011;7653;48.994;9.212;2022-11-15T22:50:23;13.30;;;8.50;;
15104;SDS011;7653;48.994;9.212;2022-11-15T22:52:49;15.13;;;9.17;;
15104;SDS011;7653;48.994;9.212;2022-11-15T22:55:15;13.97;;;8.30;;
15104;SDS011;7653;48.994;9.212;2022-11-15T22:57:41;11.93;;;8.47;;
15104;SDS011;7653;48.994;9.212;2022-11-15T23:00:10;11.33;;;8.77;;
15104;SDS011;7653;48.994;9.212;2022-11-15T23:02:38;13.30;;;8.37;;
15104;SDS011;7653;48.994;9.212;2022-11-15T23:05:04;11.67;;;8.07;;
15104;SDS011;7653;48.994;9.212;2022-11-15T23:07:30;11.93;;;7.97;;
15104;SDS011;7653;48.994;9.212;2022-11-15T23:09:58;12.97;;;8.40;;
15104;SDS011;7653;48.994;9.212;2022-11-15T23:12:46;14.07;;;7.97;;
15104;SDS011;7653;48.994;9.212;2022-11-15T23:15:30;12.87;;;8.70;;
15104;SDS011;7653;48.994;9.212;2022-11-15T23:18:15;14.90;;;8.53;;
15104;SDS011;7653;48.994;9.212;2022-11-15T23:20:42;11.10;;;8.10;;
15104;SDS011;7653;48.994;9.212;2022-11-15T23:23:07;11.30;;;8.23;;
15104;SDS011;7653;48.994;9.212;2022-11-15T23:25:33;11.70;;;9.03;;
15104;SDS011;7653;48.994;9.212;2022-11-15T23:28:03;11.47;;;9.17;;
15104;SDS011;7653;48.994;9.212;2022-11-15T23:30:32;11.43;;;9.17;;
15104;SDS011;7653;48.994;9.212;2022-11-15T23:33:18;12.07;;;8.47;;
15104;SDS011;7653;48.994;9.212;2022-11-15T23:36:04;11.97;;;8.57;;
15104;SDS011;7653;48.994;9.212;2022-11-15T23:38:33;14.77;;;8.47;;
15104;SDS011;7653;48.994;9.212;2022-11-15T23:41:01;12.30;;;8.53;;
15104;SDS011;7653;48.994;9.212;2022-11-15T23:43:28;16.43;;;8.97;;
15104;SDS011;7653;48.994;9.212;2022-11-15T23:45:55;12.77;;;7.83;;
15104;SDS011;7653;48.994;9.212;2022-11-15T23:48:20;11.63;;;8.53;;
15104;SDS011;7653;48.994;9.212;2022-11-15T23:50:48;12.07;;;8.10;;
15104;SDS011;7653;48.994;9.212;2022-11-15T23:53:14;16.60;;;9.37;;
15104;SDS011;7653;48.994;9.212;2022-11-15T23:55:41;13.17;;;10.07;;
15104;SDS011;7653;48.994;9.212;2022-11-15T23:58:06;12.10;;;9.20;;
